sensor_id;sensor_type;location;lat;lon;timestamp;P1;durP1;ratioP1;P2;durP2;ratioP2
15114;SDS011;7658;51.456;7.622;2022-09-09T00:07:03;5.25;;;2.30;;
15114;SDS011;7658;51.456;7.622;2022-09-09T00:09:45;3.45;;;1.92;;
15114;SDS011;7658;51.456;7.622;2022-09-09T00:14:50;3.55;;;2.08;;
15114;SDS011;7658;51.456;7.622;2022-09-09T00:17:20;2.58;;;1.70;;
15114;SDS011;7658;51.456;7.622;2022-09-09T00:19:58;3.30;;;2.00;;
15114;SDS011;7658;51.456;7.622;2022-09-09T00:22:39;3.10;;;2.10;;
15114;SDS011;7658;51.456;7.622;2022-09-09T00:27:44;2.70;;;2.10;;
15114;SDS011;7658;51.456;7.622;2022-09-09T00:30:18;2.47;;;1.90;;
15114;SDS011;7658;51.456;7.622;2022-09-09T00:32:48;2.05;;;1.83;;
15114;SDS011;7658;51.456;7.622;2022-09-09T00:35:24;3.30;;;2.00;;
15114;SDS011;7658;51.456;7.622;2022-09-09T00:37:56;3.55;;;1.98;;
15114;SDS011;7658;51.456;7.622;2022-09-09T00:40:29;5.10;;;2.30;;
15114;SDS011;7658;51.456;7.622;2022-09-09T00:48:17;5.70;;;2.20;;
15114;SDS011;7658;51.456;7.622;2022-09-09T00:50:53;3.53;;;1.83;;
15114;SDS011;7658;51.456;7.622;2022-09-09T00:58:38;3.88;;;2.15;;
15114;SDS011;7658;51.456;7.622;2022-09-09T01:04:09;3.80;;;2.33;;
15114;SDS011;7658;51.456;7.622;2022-09-09T01:06:32;3.70;;;2.58;;
15114;SDS011;7658;51.456;7.622;2022-09-09T01:09:04;3.13;;;2.35;;
15114;SDS011;7658;51.456;7.622;2022-09-09T01:16:54;8.75;;;2.63;;
15114;SDS011;7658;51.456;7.622;2022-09-09T01:19:27;6.40;;;2.33;;
15114;SDS011;7658;51.456;7.622;2022-09-09T01:27:05;2.58;;;2.00;;
15114;SDS011;7658;51.456;7.622;2022-09-09T01:29:32;3.30;;;2.15;;
15114;SDS011;7658;51.456;7.622;2022-09-09T01:32:45;4.72;;;2.50;;
15114;SDS011;7658;51.456;7.622;2022-09-09T01:35:02;4.18;;;2.45;;
15114;SDS011;7658;51.456;7.622;2022-09-09T01:37:29;3.47;;;2.40;;
15114;SDS011;7658;51.456;7.622;2022-09-09T01:39:55;5.30;;;2.53;;
15114;SDS011;7658;51.456;7.622;2022-09-09T01:42:20;5.20;;;2.53;;
15114;SDS011;7658;51.456;7.622;2022-09-09T01:44:46;4.18;;;2.40;;
15114;SDS011;7658;51.456;7.622;2022-09-09T01:47:12;3.67;;;2.20;;
15114;SDS011;7658;51.456;7.622;2022-09-09T01:49:39;2.92;;;2.00;;
15114;SDS011;7658;51.456;7.622;2022-09-09T01:52:05;2.40;;;2.20;;
15114;SDS011;7658;51.456;7.622;2022-09-09T01:54:31;4.97;;;2.17;;
15114;SDS011;7658;51.456;7.622;2022-09-09T02:00:06;3.65;;;2.28;;
15114;SDS011;7658;51.456;7.622;2022-09-09T02:05:08;5.93;;;2.38;;
15114;SDS011;7658;51.456;7.622;2022-09-09T02:07:40;3.15;;;1.95;;
15114;SDS011;7658;51.456;7.622;2022-09-09T02:12:44;5.25;;;2.42;;
15114;SDS011;7658;51.456;7.622;2022-09-09T02:15:38;4.90;;;2.33;;
15114;SDS011;7658;51.456;7.622;2022-09-09T02:18:21;4.30;;;2.03;;
15114;SDS011;7658;51.456;7.622;2022-09-09T02:20:53;4.28;;;2.30;;
15114;SDS011;7658;51.456;7.622;2022-09-09T02:23:21;3.78;;;2.33;;
15114;SDS011;7658;51.456;7.622;2022-09-09T02:25:48;3.72;;;2.35;;
15114;SDS011;7658;51.456;7.622;2022-09-09T02:28:16;5.88;;;2.45;;
15114;SDS011;7658;51.456;7.622;2022-09-09T02:30:46;3.85;;;2.22;;
15114;SDS011;7658;51.456;7.622;2022-09-09T02:33:18;2.30;;;2.10;;
15114;SDS011;7658;51.456;7.622;2022-09-09T02:35:45;2.63;;;2.15;;
15114;SDS011;7658;51.456;7.622;2022-09-09T02:38:12;4.05;;;2.10;;
15114;SDS011;7658;51.456;7.622;2022-09-09T02:40:39;4.47;;;2.20;;
15114;SDS011;7658;51.456;7.622;2022-09-09T02:43:05;3.40;;;2.30;;
15114;SDS011;7658;51.456;7.622;2022-09-09T02:54:34;6.32;;;2.45;;
15114;SDS011;7658;51.456;7.622;2022-09-09T02:56:55;5.00;;;2.53;;
15114;SDS011;7658;51.456;7.622;2022-09-09T02:59:49;2.20;;;2.03;;
15114;SDS011;7658;51.456;7.622;2022-09-09T03:02:17;5.35;;;2.28;;
15114;SDS011;7658;51.456;7.622;2022-09-09T03:04:43;6.47;;;2.25;;
15114;SDS011;7658;51.456;7.622;2022-09-09T03:07:10;2.97;;;2.30;;
15114;SDS011;7658;51.456;7.622;2022-09-09T03:09:36;3.45;;;2.08;;
15114;SDS011;7658;51.456;7.622;2022-09-09T03:12:02;6.70;;;2.15;;
15114;SDS011;7658;51.456;7.622;2022-09-09T03:14:29;5.22;;;2.40;;
15114;SDS011;7658;51.456;7.622;2022-09-09T03:16:55;5.43;;;2.30;;
15114;SDS011;7658;51.456;7.622;2022-09-09T03:19:23;6.25;;;2.10;;
15114;SDS011;7658;51.456;7.622;2022-09-09T03:21:48;3.25;;;2.30;;
15114;SDS011;7658;51.456;7.622;2022-09-09T03:24:14;3.47;;;2.22;;
15114;SDS011;7658;51.456;7.622;2022-09-09T03:26:41;5.93;;;2.90;;
15114;SDS011;7658;51.456;7.622;2022-09-09T03:29:10;4.22;;;2.33;;
15114;SDS011;7658;51.456;7.622;2022-09-09T03:31:37;2.58;;;2.17;;
15114;SDS011;7658;51.456;7.622;2022-09-09T03:34:04;2.67;;;2.20;;
15114;SDS011;7658;51.456;7.622;2022-09-09T03:36:30;6.00;;;2.58;;
15114;SDS011;7658;51.456;7.622;2022-09-09T03:38:56;3.50;;;2.10;;
15114;SDS011;7658;51.456;7.622;2022-09-09T03:41:23;5.53;;;2.50;;
15114;SDS011;7658;51.456;7.622;2022-09-09T03:43:50;4.57;;;2.33;;
15114;SDS011;7658;51.456;7.622;2022-09-09T03:46:23;2.90;;;2.15;;
15114;SDS011;7658;51.456;7.622;2022-09-09T03:48:53;4.05;;;2.30;;
15114;SDS011;7658;51.456;7.622;2022-09-09T03:51:19;5.38;;;2.15;;
15114;SDS011;7658;51.456;7.622;2022-09-09T03:53:46;6.63;;;2.80;;
15114;SDS011;7658;51.456;7.622;2022-09-09T03:56:12;8.30;;;2.72;;
15114;SDS011;7658;51.456;7.622;2022-09-09T03:58:38;5.45;;;2.72;;
15114;SDS011;7658;51.456;7.622;2022-09-09T04:01:11;4.03;;;2.30;;
15114;SDS011;7658;51.456;7.622;2022-09-09T04:03:38;4.55;;;2.30;;
15114;SDS011;7658;51.456;7.622;2022-09-09T04:06:04;5.32;;;2.70;;
15114;SDS011;7658;51.456;7.622;2022-09-09T04:08:32;5.95;;;2.67;;
15114;SDS011;7658;51.456;7.622;2022-09-09T04:10:59;5.50;;;2.75;;
15114;SDS011;7658;51.456;7.622;2022-09-09T04:13:27;7.97;;;2.33;;
15114;SDS011;7658;51.456;7.622;2022-09-09T04:15:54;8.45;;;2.63;;
15114;SDS011;7658;51.456;7.622;2022-09-09T04:18:21;4.97;;;2.53;;
15114;SDS011;7658;51.456;7.622;2022-09-09T04:20:49;6.03;;;2.50;;
15114;SDS011;7658;51.456;7.622;2022-09-09T04:23:16;3.00;;;2.35;;
15114;SDS011;7658;51.456;7.622;2022-09-09T04:25:49;6.53;;;2.58;;
15114;SDS011;7658;51.456;7.622;2022-09-09T04:28:17;7.00;;;2.42;;
15114;SDS011;7658;51.456;7.622;2022-09-09T04:30:44;4.20;;;2.60;;
15114;SDS011;7658;51.456;7.622;2022-09-09T04:33:11;3.58;;;2.30;;
15114;SDS011;7658;51.456;7.622;2022-09-09T04:35:38;8.60;;;2.50;;
15114;SDS011;7658;51.456;7.622;2022-09-09T04:38:04;5.03;;;2.92;;
15114;SDS011;7658;51.456;7.622;2022-09-09T04:40:32;4.43;;;2.35;;
15114;SDS011;7658;51.456;7.622;2022-09-09T04:42:58;4.18;;;2.50;;
15114;SDS011;7658;51.456;7.622;2022-09-09T04:45:26;6.50;;;2.97;;
15114;SDS011;7658;51.456;7.622;2022-09-09T04:47:52;9.35;;;2.85;;
15114;SDS011;7658;51.456;7.622;2022-09-09T04:50:18;6.30;;;2.78;;
15114;SDS011;7658;51.456;7.622;2022-09-09T04:52:44;10.10;;;2.75;;
15114;SDS011;7658;51.456;7.622;2022-09-09T04:55:10;6.53;;;2.60;;
15114;SDS011;7658;51.456;7.622;2022-09-09T04:57:38;6.45;;;2.83;;
15114;SDS011;7658;51.456;7.622;2022-09-09T05:00:04;10.75;;;2.67;;
15114;SDS011;7658;51.456;7.622;2022-09-09T05:02:30;6.50;;;2.78;;
15114;SDS011;7658;51.456;7.622;2022-09-09T05:04:57;6.88;;;2.75;;
15114;SDS011;7658;51.456;7.622;2022-09-09T05:07:23;4.78;;;2.70;;
15114;SDS011;7658;51.456;7.622;2022-09-09T05:09:51;2.45;;;2.17;;
15114;SDS011;7658;51.456;7.622;2022-09-09T05:12:17;4.30;;;2.33;;
15114;SDS011;7658;51.456;7.622;2022-09-09T05:14:43;5.63;;;2.78;;
15114;SDS011;7658;51.456;7.622;2022-09-09T05:17:09;7.15;;;2.40;;
15114;SDS011;7658;51.456;7.622;2022-09-09T05:19:35;5.57;;;2.70;;
15114;SDS011;7658;51.456;7.622;2022-09-09T05:22:01;5.32;;;2.70;;
15114;SDS011;7658;51.456;7.622;2022-09-09T05:24:27;4.38;;;2.30;;
15114;SDS011;7658;51.456;7.622;2022-09-09T05:26:53;5.95;;;2.67;;
15114;SDS011;7658;51.456;7.622;2022-09-09T05:29:18;8.63;;;3.08;;
15114;SDS011;7658;51.456;7.622;2022-09-09T05:31:44;6.00;;;2.88;;
15114;SDS011;7658;51.456;7.622;2022-09-09T05:34:12;5.53;;;2.55;;
15114;SDS011;7658;51.456;7.622;2022-09-09T05:36:38;6.47;;;2.72;;
15114;SDS011;7658;51.456;7.622;2022-09-09T05:39:04;4.80;;;2.65;;
15114;SDS011;7658;51.456;7.622;2022-09-09T05:41:30;3.05;;;2.55;;
15114;SDS011;7658;51.456;7.622;2022-09-09T05:43:56;4.97;;;2.30;;
15114;SDS011;7658;51.456;7.622;2022-09-09T05:46:24;4.60;;;2.72;;
15114;SDS011;7658;51.456;7.622;2022-09-09T05:48:52;5.38;;;2.33;;
15114;SDS011;7658;51.456;7.622;2022-09-09T05:51:19;4.47;;;2.67;;
15114;SDS011;7658;51.456;7.622;2022-09-09T05:53:47;9.55;;;3.05;;
15114;SDS011;7658;51.456;7.622;2022-09-09T05:56:14;7.88;;;3.00;;
15114;SDS011;7658;51.456;7.622;2022-09-09T05:58:46;6.60;;;2.80;;
15114;SDS011;7658;51.456;7.622;2022-09-09T06:01:18;4.32;;;2.40;;
15114;SDS011;7658;51.456;7.622;2022-09-09T06:03:46;6.43;;;2.60;;
15114;SDS011;7658;51.456;7.622;2022-09-09T06:06:15;2.65;;;2.33;;
15114;SDS011;7658;51.456;7.622;2022-09-09T06:08:43;5.57;;;2.80;;
15114;SDS011;7658;51.456;7.622;2022-09-09T06:11:14;6.18;;;2.92;;
15114;SDS011;7658;51.456;7.622;2022-09-09T06:13:45;4.15;;;2.45;;
15114;SDS011;7658;51.456;7.622;2022-09-09T06:16:13;6.05;;;2.70;;
15114;SDS011;7658;51.456;7.622;2022-09-09T06:18:41;3.85;;;2.60;;
15114;SDS011;7658;51.456;7.622;2022-09-09T06:21:09;6.18;;;2.60;;
15114;SDS011;7658;51.456;7.622;2022-09-09T06:23:40;7.78;;;2.53;;
15114;SDS011;7658;51.456;7.622;2022-09-09T06:26:07;5.57;;;2.58;;
15114;SDS011;7658;51.456;7.622;2022-09-09T06:28:37;6.22;;;2.63;;
15114;SDS011;7658;51.456;7.622;2022-09-09T06:31:06;5.43;;;2.60;;
15114;SDS011;7658;51.456;7.622;2022-09-09T06:33:35;4.25;;;2.53;;
15114;SDS011;7658;51.456;7.622;2022-09-09T06:36:13;9.43;;;2.50;;
15114;SDS011;7658;51.456;7.622;2022-09-09T06:38:40;5.93;;;2.33;;
15114;SDS011;7658;51.456;7.622;2022-09-09T06:41:07;3.92;;;2.63;;
15114;SDS011;7658;51.456;7.622;2022-09-09T06:43:34;6.15;;;2.60;;
15114;SDS011;7658;51.456;7.622;2022-09-09T06:46:14;6.07;;;2.70;;
15114;SDS011;7658;51.456;7.622;2022-09-09T06:48:46;4.53;;;2.45;;
15114;SDS011;7658;51.456;7.622;2022-09-09T06:51:20;8.40;;;2.30;;
15114;SDS011;7658;51.456;7.622;2022-09-09T06:53:50;4.40;;;2.47;;
15114;SDS011;7658;51.456;7.622;2022-09-09T06:56:18;3.72;;;2.33;;
15114;SDS011;7658;51.456;7.622;2022-09-09T06:58:48;5.15;;;3.00;;
15114;SDS011;7658;51.456;7.622;2022-09-09T07:01:16;6.50;;;2.80;;
15114;SDS011;7658;51.456;7.622;2022-09-09T07:03:48;3.83;;;2.38;;
15114;SDS011;7658;51.456;7.622;2022-09-09T07:06:22;7.78;;;2.70;;
15114;SDS011;7658;51.456;7.622;2022-09-09T07:08:57;4.80;;;2.30;;
15114;SDS011;7658;51.456;7.622;2022-09-09T07:11:30;3.92;;;2.40;;
15114;SDS011;7658;51.456;7.622;2022-09-09T07:13:58;2.95;;;2.10;;
15114;SDS011;7658;51.456;7.622;2022-09-09T07:16:25;4.35;;;2.22;;
15114;SDS011;7658;51.456;7.622;2022-09-09T07:18:52;4.07;;;2.40;;
15114;SDS011;7658;51.456;7.622;2022-09-09T07:21:22;4.78;;;2.25;;
15114;SDS011;7658;51.456;7.622;2022-09-09T07:23:49;4.18;;;2.60;;
15114;SDS011;7658;51.456;7.622;2022-09-09T07:26:16;5.18;;;2.30;;
15114;SDS011;7658;51.456;7.622;2022-09-09T07:28:46;7.30;;;2.33;;
15114;SDS011;7658;51.456;7.622;2022-09-09T07:33:43;4.78;;;2.10;;
15114;SDS011;7658;51.456;7.622;2022-09-09T07:36:28;3.22;;;2.35;;
15114;SDS011;7658;51.456;7.622;2022-09-09T07:38:59;3.40;;;2.30;;
15114;SDS011;7658;51.456;7.622;2022-09-09T07:41:28;8.00;;;2.65;;
15114;SDS011;7658;51.456;7.622;2022-09-09T07:43:57;3.38;;;2.40;;
15114;SDS011;7658;51.456;7.622;2022-09-09T07:46:24;3.25;;;2.65;;
15114;SDS011;7658;51.456;7.622;2022-09-09T07:48:54;4.55;;;2.45;;
15114;SDS011;7658;51.456;7.622;2022-09-09T07:51:25;6.72;;;2.78;;
15114;SDS011;7658;51.456;7.622;2022-09-09T07:53:53;8.45;;;2.70;;
15114;SDS011;7658;51.456;7.622;2022-09-09T07:56:22;7.07;;;2.45;;
15114;SDS011;7658;51.456;7.622;2022-09-09T07:58:49;5.53;;;2.55;;
15114;SDS011;7658;51.456;7.622;2022-09-09T08:01:17;4.93;;;2.53;;
15114;SDS011;7658;51.456;7.622;2022-09-09T08:03:58;7.47;;;2.75;;
15114;SDS011;7658;51.456;7.622;2022-09-09T08:06:37;8.05;;;2.70;;
15114;SDS011;7658;51.456;7.622;2022-09-09T08:09:04;3.75;;;2.50;;
15114;SDS011;7658;51.456;7.622;2022-09-09T08:11:31;5.68;;;2.95;;
15114;SDS011;7658;51.456;7.622;2022-09-09T08:13:58;5.22;;;2.58;;
15114;SDS011;7658;51.456;7.622;2022-09-09T08:16:26;8.57;;;2.50;;
15114;SDS011;7658;51.456;7.622;2022-09-09T08:18:54;6.97;;;2.47;;
15114;SDS011;7658;51.456;7.622;2022-09-09T08:21:22;7.75;;;2.47;;
15114;SDS011;7658;51.456;7.622;2022-09-09T08:23:50;7.60;;;2.60;;
15114;SDS011;7658;51.456;7.622;2022-09-09T08:26:19;4.57;;;2.95;;
15114;SDS011;7658;51.456;7.622;2022-09-09T08:28:49;5.40;;;2.40;;
15114;SDS011;7658;51.456;7.622;2022-09-09T08:31:21;6.85;;;2.60;;
15114;SDS011;7658;51.456;7.622;2022-09-09T08:33:55;9.82;;;2.90;;
15114;SDS011;7658;51.456;7.622;2022-09-09T08:36:23;9.50;;;2.85;;
15114;SDS011;7658;51.456;7.622;2022-09-09T08:38:51;11.13;;;2.58;;
15114;SDS011;7658;51.456;7.622;2022-09-09T09:00:51;6.18;;;2.50;;
15114;SDS011;7658;51.456;7.622;2022-09-09T09:11:50;7.45;;;2.70;;
15114;SDS011;7658;51.456;7.622;2022-09-09T09:14:20;5.20;;;2.45;;
15114;SDS011;7658;51.456;7.622;2022-09-09T09:16:50;4.65;;;2.38;;
15114;SDS011;7658;51.456;7.622;2022-09-09T09:19:17;10.40;;;2.40;;
15114;SDS011;7658;51.456;7.622;2022-09-09T09:21:45;6.22;;;2.70;;
15114;SDS011;7658;51.456;7.622;2022-09-09T09:24:51;3.63;;;2.20;;
15114;SDS011;7658;51.456;7.622;2022-09-09T09:27:33;8.75;;;2.35;;
15114;SDS011;7658;51.456;7.622;2022-09-09T09:30:01;3.33;;;2.30;;
15114;SDS011;7658;51.456;7.622;2022-09-09T09:32:55;6.15;;;2.30;;
15114;SDS011;7658;51.456;7.622;2022-09-09T09:35:30;5.60;;;2.20;;
15114;SDS011;7658;51.456;7.622;2022-09-09T09:37:58;7.63;;;2.85;;
15114;SDS011;7658;51.456;7.622;2022-09-09T09:40:26;6.65;;;2.33;;
15114;SDS011;7658;51.456;7.622;2022-09-09T09:42:55;6.63;;;2.60;;
15114;SDS011;7658;51.456;7.622;2022-09-09T09:45:34;6.80;;;2.55;;
15114;SDS011;7658;51.456;7.622;2022-09-09T09:48:10;5.93;;;2.25;;
15114;SDS011;7658;51.456;7.622;2022-09-09T09:50:48;5.88;;;2.05;;
15114;SDS011;7658;51.456;7.622;2022-09-09T09:53:24;5.30;;;2.28;;
15114;SDS011;7658;51.456;7.622;2022-09-09T09:56:01;5.05;;;2.17;;
15114;SDS011;7658;51.456;7.622;2022-09-09T10:04:15;8.38;;;2.50;;
15114;SDS011;7658;51.456;7.622;2022-09-09T10:06:48;8.32;;;2.40;;
15114;SDS011;7658;51.456;7.622;2022-09-09T10:09:30;8.85;;;3.05;;
15114;SDS011;7658;51.456;7.622;2022-09-09T10:14:30;10.07;;;2.63;;
15114;SDS011;7658;51.456;7.622;2022-09-09T10:22:39;5.20;;;2.35;;
15114;SDS011;7658;51.456;7.622;2022-09-09T10:25:26;4.32;;;1.90;;
15114;SDS011;7658;51.456;7.622;2022-09-09T10:36:25;5.13;;;2.05;;
15114;SDS011;7658;51.456;7.622;2022-09-09T10:50:03;3.72;;;1.83;;
15114;SDS011;7658;51.456;7.622;2022-09-09T10:56:07;6.93;;;1.90;;
15114;SDS011;7658;51.456;7.622;2022-09-09T10:58:41;5.57;;;2.78;;
15114;SDS011;7658;51.456;7.622;2022-09-09T11:01:24;3.38;;;2.03;;
15114;SDS011;7658;51.456;7.622;2022-09-09T11:06:57;5.10;;;2.00;;
15114;SDS011;7658;51.456;7.622;2022-09-09T11:09:31;7.45;;;2.28;;
15114;SDS011;7658;51.456;7.622;2022-09-09T11:12:03;4.13;;;1.90;;
15114;SDS011;7658;51.456;7.622;2022-09-09T11:14:39;4.47;;;2.35;;
15114;SDS011;7658;51.456;7.622;2022-09-09T11:17:14;7.78;;;2.22;;
15114;SDS011;7658;51.456;7.622;2022-09-09T11:19:43;4.40;;;2.25;;
15114;SDS011;7658;51.456;7.622;2022-09-09T11:22:25;4.25;;;2.20;;
15114;SDS011;7658;51.456;7.622;2022-09-09T11:25:05;5.50;;;2.25;;
15114;SDS011;7658;51.456;7.622;2022-09-09T11:27:44;4.82;;;2.08;;
15114;SDS011;7658;51.456;7.622;2022-09-09T11:30:26;6.45;;;1.85;;
15114;SDS011;7658;51.456;7.622;2022-09-09T11:35:33;2.80;;;1.60;;
15114;SDS011;7658;51.456;7.622;2022-09-09T11:40:59;6.32;;;2.38;;
15114;SDS011;7658;51.456;7.622;2022-09-09T11:43:33;4.20;;;1.90;;
15114;SDS011;7658;51.456;7.622;2022-09-09T11:46:05;5.38;;;1.80;;
15114;SDS011;7658;51.456;7.622;2022-09-09T11:48:42;6.20;;;1.98;;
15114;SDS011;7658;51.456;7.622;2022-09-09T11:51:25;4.45;;;1.58;;
15114;SDS011;7658;51.456;7.622;2022-09-09T11:53:54;4.22;;;1.70;;
15114;SDS011;7658;51.456;7.622;2022-09-09T11:56:24;6.68;;;2.15;;
15114;SDS011;7658;51.456;7.622;2022-09-09T12:04:09;4.22;;;1.77;;
15114;SDS011;7658;51.456;7.622;2022-09-09T12:06:44;4.53;;;1.58;;
15114;SDS011;7658;51.456;7.622;2022-09-09T12:14:44;6.10;;;1.70;;
15114;SDS011;7658;51.456;7.622;2022-09-09T12:17:24;2.88;;;1.65;;
15114;SDS011;7658;51.456;7.622;2022-09-09T12:25:59;3.00;;;1.70;;
15114;SDS011;7658;51.456;7.622;2022-09-09T12:31:26;6.82;;;1.85;;
15114;SDS011;7658;51.456;7.622;2022-09-09T12:34:17;5.30;;;1.70;;
15114;SDS011;7658;51.456;7.622;2022-09-09T12:36:58;2.80;;;1.73;;
15114;SDS011;7658;51.456;7.622;2022-09-09T12:39:31;3.67;;;1.88;;
15114;SDS011;7658;51.456;7.622;2022-09-09T12:42:03;3.90;;;2.05;;
15114;SDS011;7658;51.456;7.622;2022-09-09T12:44:29;3.60;;;1.80;;
15114;SDS011;7658;51.456;7.622;2022-09-09T12:46:58;6.60;;;1.88;;
15114;SDS011;7658;51.456;7.622;2022-09-09T12:52:03;4.25;;;1.67;;
15114;SDS011;7658;51.456;7.622;2022-09-09T12:54:34;4.97;;;1.92;;
15114;SDS011;7658;51.456;7.622;2022-09-09T12:57:01;2.00;;;1.70;;
15114;SDS011;7658;51.456;7.622;2022-09-09T13:00:03;5.75;;;1.60;;
15114;SDS011;7658;51.456;7.622;2022-09-09T13:02:30;4.68;;;1.83;;
15114;SDS011;7658;51.456;7.622;2022-09-09T13:05:05;1.20;;;1.20;;
15114;SDS011;7658;51.456;7.622;2022-09-09T13:07:41;3.58;;;1.70;;
15114;SDS011;7658;51.456;7.622;2022-09-09T13:10:10;3.13;;;1.38;;
15114;SDS011;7658;51.456;7.622;2022-09-09T13:12:37;4.25;;;1.60;;
15114;SDS011;7658;51.456;7.622;2022-09-09T13:15:04;3.47;;;1.45;;
15114;SDS011;7658;51.456;7.622;2022-09-09T13:17:57;4.75;;;1.65;;
15114;SDS011;7658;51.456;7.622;2022-09-09T13:20:26;2.53;;;1.83;;
15114;SDS011;7658;51.456;7.622;2022-09-09T13:22:53;2.78;;;1.60;;
15114;SDS011;7658;51.456;7.622;2022-09-09T13:25:24;3.50;;;1.63;;
15114;SDS011;7658;51.456;7.622;2022-09-09T13:30:19;3.85;;;1.50;;
15114;SDS011;7658;51.456;7.622;2022-09-09T13:32:47;4.60;;;1.75;;
15114;SDS011;7658;51.456;7.622;2022-09-09T13:35:26;4.03;;;1.63;;
15114;SDS011;7658;51.456;7.622;2022-09-09T13:37:52;2.05;;;1.45;;
15114;SDS011;7658;51.456;7.622;2022-09-09T13:40:20;3.78;;;1.88;;
15114;SDS011;7658;51.456;7.622;2022-09-09T13:42:47;5.10;;;1.90;;
15114;SDS011;7658;51.456;7.622;2022-09-09T13:45:18;6.90;;;1.70;;
15114;SDS011;7658;51.456;7.622;2022-09-09T13:47:45;2.80;;;1.33;;
15114;SDS011;7658;51.456;7.622;2022-09-09T13:52:48;4.10;;;1.58;;
15114;SDS011;7658;51.456;7.622;2022-09-09T13:55:16;3.15;;;1.65;;
15114;SDS011;7658;51.456;7.622;2022-09-09T14:00:45;3.60;;;1.45;;
15114;SDS011;7658;51.456;7.622;2022-09-09T14:03:11;2.47;;;1.65;;
15114;SDS011;7658;51.456;7.622;2022-09-09T14:05:37;4.03;;;1.50;;
15114;SDS011;7658;51.456;7.622;2022-09-09T14:08:04;3.65;;;1.50;;
15114;SDS011;7658;51.456;7.622;2022-09-09T14:10:30;3.13;;;1.50;;
15114;SDS011;7658;51.456;7.622;2022-09-09T14:12:56;6.95;;;1.80;;
15114;SDS011;7658;51.456;7.622;2022-09-09T14:15:22;4.78;;;1.70;;
15114;SDS011;7658;51.456;7.622;2022-09-09T14:17:48;5.78;;;1.55;;
15114;SDS011;7658;51.456;7.622;2022-09-09T14:20:13;10.20;;;2.03;;
15114;SDS011;7658;51.456;7.622;2022-09-09T14:22:40;6.05;;;1.85;;
15114;SDS011;7658;51.456;7.622;2022-09-09T14:25:06;5.72;;;1.90;;
15114;SDS011;7658;51.456;7.622;2022-09-09T14:27:33;4.43;;;2.22;;
15114;SDS011;7658;51.456;7.622;2022-09-09T14:29:59;2.20;;;1.83;;
15114;SDS011;7658;51.456;7.622;2022-09-09T14:32:26;2.28;;;1.90;;
15114;SDS011;7658;51.456;7.622;2022-09-09T14:34:52;2.47;;;2.10;;
15114;SDS011;7658;51.456;7.622;2022-09-09T14:37:18;5.50;;;2.10;;
15114;SDS011;7658;51.456;7.622;2022-09-09T14:39:44;4.47;;;2.10;;
15114;SDS011;7658;51.456;7.622;2022-09-09T14:42:10;8.13;;;2.10;;
15114;SDS011;7658;51.456;7.622;2022-09-09T14:44:36;2.92;;;2.00;;
15114;SDS011;7658;51.456;7.622;2022-09-09T14:47:03;6.90;;;2.45;;
15114;SDS011;7658;51.456;7.622;2022-09-09T14:49:30;6.55;;;2.00;;
15114;SDS011;7658;51.456;7.622;2022-09-09T14:51:56;2.40;;;1.88;;
15114;SDS011;7658;51.456;7.622;2022-09-09T14:54:22;3.22;;;1.80;;
15114;SDS011;7658;51.456;7.622;2022-09-09T14:56:48;3.33;;;2.20;;
15114;SDS011;7658;51.456;7.622;2022-09-09T14:59:14;4.53;;;1.80;;
15114;SDS011;7658;51.456;7.622;2022-09-09T15:01:39;3.42;;;1.75;;
15114;SDS011;7658;51.456;7.622;2022-09-09T15:04:06;2.35;;;1.92;;
15114;SDS011;7658;51.456;7.622;2022-09-09T15:06:33;2.88;;;2.03;;
15114;SDS011;7658;51.456;7.622;2022-09-09T15:09:01;5.32;;;1.88;;
15114;SDS011;7658;51.456;7.622;2022-09-09T15:11:28;5.90;;;2.00;;
15114;SDS011;7658;51.456;7.622;2022-09-09T15:13:56;2.53;;;1.90;;
15114;SDS011;7658;51.456;7.622;2022-09-09T15:16:23;2.50;;;1.67;;
15114;SDS011;7658;51.456;7.622;2022-09-09T15:18:52;3.72;;;2.08;;
15114;SDS011;7658;51.456;7.622;2022-09-09T15:21:20;5.78;;;1.95;;
15114;SDS011;7658;51.456;7.622;2022-09-09T15:23:48;6.57;;;2.08;;
15114;SDS011;7658;51.456;7.622;2022-09-09T15:26:14;3.22;;;2.05;;
15114;SDS011;7658;51.456;7.622;2022-09-09T15:28:40;5.63;;;2.22;;
15114;SDS011;7658;51.456;7.622;2022-09-09T15:31:17;1.65;;;1.40;;
15114;SDS011;7658;51.456;7.622;2022-09-09T15:33:48;4.78;;;1.80;;
15114;SDS011;7658;51.456;7.622;2022-09-09T15:36:20;3.03;;;2.00;;
15114;SDS011;7658;51.456;7.622;2022-09-09T15:38:50;3.80;;;2.08;;
15114;SDS011;7658;51.456;7.622;2022-09-09T15:41:17;2.70;;;2.00;;
15114;SDS011;7658;51.456;7.622;2022-09-09T15:43:45;7.85;;;2.10;;
15114;SDS011;7658;51.456;7.622;2022-09-09T15:48:42;7.00;;;2.55;;
15114;SDS011;7658;51.456;7.622;2022-09-09T15:51:09;5.45;;;2.70;;
15114;SDS011;7658;51.456;7.622;2022-09-09T15:53:36;3.35;;;2.50;;
15114;SDS011;7658;51.456;7.622;2022-09-09T15:56:04;8.50;;;2.80;;
15114;SDS011;7658;51.456;7.622;2022-09-09T15:58:31;4.93;;;2.75;;
15114;SDS011;7658;51.456;7.622;2022-09-09T16:01:08;6.93;;;3.20;;
15114;SDS011;7658;51.456;7.622;2022-09-09T16:03:40;5.05;;;3.17;;
15114;SDS011;7658;51.456;7.622;2022-09-09T16:06:07;9.05;;;3.00;;
15114;SDS011;7658;51.456;7.622;2022-09-09T16:08:34;7.13;;;3.35;;
15114;SDS011;7658;51.456;7.622;2022-09-09T16:11:10;4.68;;;2.85;;
15114;SDS011;7658;51.456;7.622;2022-09-09T16:13:39;5.78;;;3.30;;
15114;SDS011;7658;51.456;7.622;2022-09-09T16:16:06;6.47;;;3.88;;
15114;SDS011;7658;51.456;7.622;2022-09-09T16:18:37;5.53;;;3.30;;
15114;SDS011;7658;51.456;7.622;2022-09-09T16:21:07;6.93;;;3.30;;
15114;SDS011;7658;51.456;7.622;2022-09-09T16:23:37;6.80;;;3.28;;
15114;SDS011;7658;51.456;7.622;2022-09-09T16:26:04;6.15;;;2.90;;
15114;SDS011;7658;51.456;7.622;2022-09-09T16:28:30;7.07;;;2.70;;
15114;SDS011;7658;51.456;7.622;2022-09-09T16:30:56;7.25;;;3.30;;
15114;SDS011;7658;51.456;7.622;2022-09-09T16:33:23;4.53;;;2.70;;
15114;SDS011;7658;51.456;7.622;2022-09-09T16:35:51;4.40;;;2.63;;
15114;SDS011;7658;51.456;7.622;2022-09-09T16:38:17;7.63;;;3.08;;
15114;SDS011;7658;51.456;7.622;2022-09-09T16:40:42;6.90;;;3.20;;
15114;SDS011;7658;51.456;7.622;2022-09-09T16:43:08;4.78;;;3.15;;
15114;SDS011;7658;51.456;7.622;2022-09-09T16:45:41;6.15;;;3.03;;
15114;SDS011;7658;51.456;7.622;2022-09-09T16:48:08;5.35;;;3.22;;
15114;SDS011;7658;51.456;7.622;2022-09-09T16:50:34;5.07;;;3.42;;
15114;SDS011;7658;51.456;7.622;2022-09-09T16:53:01;5.68;;;3.60;;
15114;SDS011;7658;51.456;7.622;2022-09-09T16:55:31;7.10;;;3.63;;
15114;SDS011;7658;51.456;7.622;2022-09-09T16:57:57;7.53;;;4.03;;
15114;SDS011;7658;51.456;7.622;2022-09-09T17:00:23;8.52;;;4.63;;
15114;SDS011;7658;51.456;7.622;2022-09-09T17:02:49;7.20;;;4.32;;
15114;SDS011;7658;51.456;7.622;2022-09-09T17:05:14;4.72;;;3.90;;
15114;SDS011;7658;51.456;7.622;2022-09-09T17:07:40;6.80;;;4.03;;
15114;SDS011;7658;51.456;7.622;2022-09-09T17:10:06;9.38;;;3.88;;
15114;SDS011;7658;51.456;7.622;2022-09-09T17:12:32;8.60;;;3.83;;
15114;SDS011;7658;51.456;7.622;2022-09-09T17:15:00;8.30;;;4.20;;
15114;SDS011;7658;51.456;7.622;2022-09-09T17:17:29;10.43;;;4.35;;
15114;SDS011;7658;51.456;7.622;2022-09-09T17:19:57;9.68;;;4.20;;
15114;SDS011;7658;51.456;7.622;2022-09-09T17:22:23;5.22;;;3.95;;
15114;SDS011;7658;51.456;7.622;2022-09-09T17:24:49;7.50;;;4.05;;
15114;SDS011;7658;51.456;7.622;2022-09-09T17:27:15;7.80;;;3.75;;
15114;SDS011;7658;51.456;7.622;2022-09-09T17:29:41;7.43;;;3.42;;
15114;SDS011;7658;51.456;7.622;2022-09-09T17:32:06;7.82;;;3.40;;
15114;SDS011;7658;51.456;7.622;2022-09-09T17:34:32;6.43;;;3.45;;
15114;SDS011;7658;51.456;7.622;2022-09-09T17:36:59;5.53;;;3.22;;
15114;SDS011;7658;51.456;7.622;2022-09-09T17:39:24;5.53;;;3.03;;
15114;SDS011;7658;51.456;7.622;2022-09-09T17:41:51;3.40;;;2.65;;
15114;SDS011;7658;51.456;7.622;2022-09-09T17:44:17;6.85;;;3.13;;
15114;SDS011;7658;51.456;7.622;2022-09-09T17:46:44;6.07;;;2.92;;
15114;SDS011;7658;51.456;7.622;2022-09-09T17:49:13;7.53;;;3.17;;
15114;SDS011;7658;51.456;7.622;2022-09-09T17:51:40;4.15;;;3.03;;
15114;SDS011;7658;51.456;7.622;2022-09-09T17:54:09;7.28;;;3.08;;
15114;SDS011;7658;51.456;7.622;2022-09-09T17:56:37;7.15;;;3.20;;